Time;durP1;ratioP1;P1;durP2;ratioP2;P2;SDS_P1;SDS_P2;PMS_P1;PMS_P2;Temp;Humidity;BMP_temperature;BMP_pressure;BME280_temperature;BME280_humidity;BME280_pressure;Samples;Min_cycle;Max_cycle;Signal;HPM_P1;HPM_P2
2021/06/22 00:00:26;;;;;;;19.25;6.50;;;15.10;99.90;;;;;;5091731;28;20404;-64
2021/06/22 00:02:52;;;;;;;14.38;6.00;;;15.10;99.90;;;;;;5080481;28;20373;-64
2021/06/22 00:05:19;;;;;;;16.75;6.20;;;15.10;99.90;;;;;;5083362;28;20859;-64
2021/06/22 00:07:49;;;;;;;19.27;7.07;;;15.10;99.90;;;;;;5080296;28;20386;-63
2021/06/22 00:10:17;;;;;;;17.30;6.13;;;15.10;99.90;;;;;;5071242;28;20383;-64
2021/06/22 00:12:44;;;;;;;20.63;6.30;;;15.10;99.90;;;;;;5084096;28;20411;-65
2021/06/22 00:15:11;;;;;;;16.50;5.85;;;15.10;99.90;;;;;;5084534;28;20386;-64
2021/06/22 00:17:38;;;;;;;17.20;5.97;;;15.10;99.90;;;;;;5080959;28;20395;-64
2021/06/22 00:20:05;;;;;;;13.63;5.60;;;15.10;99.90;;;;;;5088773;28;20747;-63
2021/06/22 00:22:31;;;;;;;18.08;6.07;;;15.10;99.90;;;;;;5073326;28;20395;-64
2021/06/22 00:24:57;;;;;;;16.15;6.03;;;15.10;99.90;;;;;;5077297;28;20804;-63
2021/06/22 00:27:23;;;;;;;18.17;6.50;;;15.10;99.90;;;;;;5078705;28;20390;-63
2021/06/22 00:29:50;;;;;;;17.23;6.50;;;15.10;99.90;;;;;;5077807;28;20379;-62
2021/06/22 00:32:17;;;;;;;18.27;6.77;;;15.10;99.90;;;;;;5077777;28;20891;-63
2021/06/22 00:34:45;;;;;;;19.58;7.07;;;15.00;99.90;;;;;;5073291;28;20408;-63
2021/06/22 00:37:14;;;;;;;19.47;6.90;;;14.90;99.90;;;;;;5090092;28;20883;-63
2021/06/22 00:39:41;;;;;;;21.20;7.13;;;14.90;99.90;;;;;;5079441;28;20397;-63
2021/06/22 00:42:07;;;;;;;15.23;6.68;;;14.80;99.90;;;;;;5083935;28;20386;-64
2021/06/22 00:44:53;;;;;;;17.05;6.80;;;14.80;99.90;;;;;;5079834;28;20382;-64
2021/06/22 00:47:19;;;;;;;21.58;6.25;;;14.80;99.90;;;;;;5082266;28;20370;-63
2021/06/22 00:49:46;;;;;;;16.02;6.43;;;14.80;99.90;;;;;;5068096;28;20389;-64
2021/06/22 00:52:12;;;;;;;17.88;6.03;;;14.80;99.90;;;;;;5087413;28;20898;-63
2021/06/22 00:54:38;;;;;;;15.57;6.18;;;14.80;99.90;;;;;;5081350;28;20379;-63
2021/06/22 00:57:08;;;;;;;18.23;6.22;;;14.80;99.90;;;;;;5090471;28;20384;-62
2021/06/22 00:59:35;;;;;;;18.27;5.60;;;14.80;99.90;;;;;;5080173;28;20389;-63
2021/06/22 01:02:02;;;;;;;20.25;6.55;;;14.80;99.90;;;;;;5087568;28;20427;-62
2021/06/22 01:04:28;;;;;;;16.52;6.05;;;14.90;99.90;;;;;;5085633;28;20389;-64
2021/06/22 01:06:55;;;;;;;17.55;6.10;;;14.90;99.90;;;;;;5079711;28;20386;-64
2021/06/22 01:09:21;;;;;;;16.15;5.65;;;14.90;99.90;;;;;;5068986;28;20393;-65
2021/06/22 01:11:48;;;;;;;15.52;5.53;;;14.90;99.90;;;;;;5083308;28;20410;-64
2021/06/22 01:14:14;;;;;;;15.83;5.80;;;14.90;99.90;;;;;;5076153;28;20374;-64
2021/06/22 01:16:40;;;;;;;15.63;5.70;;;14.90;99.90;;;;;;5078943;28;20875;-65
2021/06/22 01:19:07;;;;;;;20.25;5.57;;;14.90;99.90;;;;;;5085058;28;20377;-63
2021/06/22 01:21:33;;;;;;;15.50;5.20;;;14.90;99.90;;;;;;5080597;28;20381;-64
2021/06/22 01:24:06;;;;;;;14.35;5.30;;;14.90;99.90;;;;;;5081065;28;20724;-64
2021/06/22 01:26:34;;;;;;;14.95;5.65;;;14.90;99.90;;;;;;5086616;28;20387;-63
2021/06/22 01:29:00;;;;;;;15.83;5.63;;;14.90;99.90;;;;;;5085254;28;20382;-61
2021/06/22 01:31:26;;;;;;;17.63;5.78;;;14.80;99.90;;;;;;5055505;28;20392;-63
2021/06/22 01:33:52;;;;;;;13.52;5.30;;;14.80;99.90;;;;;;5075594;28;20424;-64
2021/06/22 01:36:19;;;;;;;15.60;5.43;;;14.70;99.90;;;;;;5075699;28;20401;-63
2021/06/22 01:38:45;;;;;;;15.18;5.70;;;14.70;99.90;;;;;;5085558;28;20378;-63
2021/06/22 01:41:11;;;;;;;15.97;4.93;;;14.60;99.90;;;;;;5083844;28;20710;-61
2021/06/22 01:43:37;;;;;;;13.57;4.80;;;14.60;99.90;;;;;;5079859;28;20392;-63
2021/06/22 01:46:04;;;;;;;15.82;5.00;;;14.60;99.90;;;;;;5071466;28;20767;-61
2021/06/22 01:48:31;;;;;;;14.43;4.97;;;14.60;99.90;;;;;;5078273;28;20393;-63
2021/06/22 01:50:57;;;;;;;11.33;4.50;;;14.70;99.90;;;;;;5077343;28;20387;-62
2021/06/22 01:53:24;;;;;;;13.90;4.60;;;14.70;99.90;;;;;;5088831;28;20404;-64
2021/06/22 01:55:51;;;;;;;15.52;5.22;;;14.60;99.90;;;;;;5082982;28;20386;-62
2021/06/22 01:58:17;;;;;;;15.07;4.72;;;14.70;99.90;;;;;;5074795;28;20382;-64
2021/06/22 02:00:44;;;;;;;11.88;4.45;;;14.70;99.90;;;;;;5083868;28;20385;-64
2021/06/22 02:03:15;;;;;;;15.65;4.70;;;14.70;99.90;;;;;;5081060;28;20887;-63
2021/06/22 02:05:42;;;;;;;11.95;4.35;;;14.70;99.90;;;;;;5088195;28;20395;-64
2021/06/22 02:08:08;;;;;;;13.75;4.18;;;14.70;99.90;;;;;;5075808;28;20365;-63
2021/06/22 02:10:34;;;;;;;14.05;4.30;;;14.70;99.90;;;;;;5084896;28;20382;-64
2021/06/22 02:13:00;;;;;;;12.82;4.25;;;14.70;99.90;;;;;;5079778;28;20403;-65
2021/06/22 02:15:26;;;;;;;11.57;4.63;;;14.80;99.90;;;;;;5071189;28;20401;-65
2021/06/22 02:17:53;;;;;;;16.52;4.43;;;14.80;99.90;;;;;;5080571;28;22229;-64
2021/06/22 02:20:19;;;;;;;11.40;4.50;;;14.80;99.90;;;;;;5080681;28;20384;-64
2021/06/22 02:22:45;;;;;;;13.52;4.32;;;14.80;99.90;;;;;;5085071;28;20866;-63
2021/06/22 02:25:11;;;;;;;14.55;4.60;;;14.80;99.90;;;;;;5083112;28;20382;-65
2021/06/22 02:27:37;;;;;;;11.30;4.28;;;14.80;99.90;;;;;;5087934;28;20365;-62
2021/06/22 02:30:08;;;;;;;18.08;5.75;;;14.80;99.90;;;;;;5070000;28;20386;-64
2021/06/22 02:32:34;;;;;;;15.57;4.40;;;14.80;99.90;;;;;;5086085;28;20752;-64
2021/06/22 02:35:00;;;;;;;14.88;4.85;;;14.80;99.90;;;;;;5081821;28;20399;-64
2021/06/22 02:37:26;;;;;;;11.90;4.45;;;14.80;99.90;;;;;;5087610;28;20411;-64
2021/06/22 02:39:53;;;;;;;10.55;4.43;;;14.80;99.90;;;;;;5073397;28;20393;-63
2021/06/22 02:42:19;;;;;;;12.23;4.57;;;14.80;99.90;;;;;;5077062;28;20373;-65
2021/06/22 02:44:45;;;;;;;13.55;4.47;;;14.80;99.90;;;;;;5083041;28;20374;-63
2021/06/22 02:47:11;;;;;;;14.75;4.97;;;14.80;99.90;;;;;;5076609;28;20395;-64
2021/06/22 02:49:37;;;;;;;16.67;4.80;;;14.80;99.90;;;;;;5075567;28;20872;-63
2021/06/22 02:52:05;;;;;;;13.80;4.80;;;14.90;99.90;;;;;;5077561;28;20413;-63
2021/06/22 02:54:33;;;;;;;17.60;4.90;;;14.90;99.90;;;;;;5070597;28;20399;-64
2021/06/22 02:56:59;;;;;;;19.05;4.70;;;14.80;99.90;;;;;;5083555;28;20388;-64
2021/06/22 02:59:25;;;;;;;18.95;4.97;;;14.80;99.90;;;;;;5083903;28;20373;-64
2021/06/22 03:01:51;;;;;;;13.93;4.30;;;14.80;99.90;;;;;;5071218;28;20402;-63
2021/06/22 03:04:17;;;;;;;15.50;4.90;;;14.80;99.90;;;;;;5074698;28;20400;-64
2021/06/22 03:06:43;;;;;;;13.80;4.32;;;14.90;99.90;;;;;;5077270;28;20389;-64
2021/06/22 03:09:10;;;;;;;12.90;4.43;;;14.90;99.90;;;;;;5089394;28;20381;-62
2021/06/22 03:11:36;;;;;;;14.93;4.60;;;14.90;99.90;;;;;;5088911;28;20376;-63
2021/06/22 03:14:02;;;;;;;14.43;4.60;;;15.00;99.90;;;;;;5087916;28;20887;-64
2021/06/22 03:16:28;;;;;;;11.88;4.45;;;14.90;99.90;;;;;;5073179;28;20374;-64
2021/06/22 03:18:54;;;;;;;13.57;4.60;;;14.90;99.90;;;;;;5084286;28;20381;-64
2021/06/22 03:21:20;;;;;;;14.07;4.75;;;14.90;99.90;;;;;;5084208;28;20404;-64
2021/06/22 03:23:48;;;;;;;12.00;4.73;;;14.90;99.90;;;;;;5087248;28;20877;-59
2021/06/22 03:26:15;;;;;;;15.05;4.68;;;14.90;99.90;;;;;;5089706;28;20388;-63
2021/06/22 03:28:41;;;;;;;14.02;4.97;;;14.90;99.90;;;;;;5086898;28;20395;-63
2021/06/22 03:31:08;;;;;;;15.10;4.80;;;14.90;99.90;;;;;;5082290;28;20386;-63
2021/06/22 03:33:34;;;;;;;12.48;4.43;;;14.90;99.90;;;;;;5068597;28;20971;-65
2021/06/22 03:36:00;;;;;;;15.82;4.78;;;14.90;99.90;;;;;;5083349;28;20392;-63
2021/06/22 03:38:26;;;;;;;13.88;4.65;;;14.90;99.90;;;;;;5084462;28;20388;-61
2021/06/22 03:40:52;;;;;;;15.93;4.72;;;15.00;99.90;;;;;;5081215;28;20383;-63
2021/06/22 03:43:21;;;;;;;17.05;4.93;;;15.00;99.90;;;;;;5079706;28;20856;-65
2021/06/22 03:45:47;;;;;;;13.10;4.40;;;15.00;99.90;;;;;;5084784;28;20385;-64
2021/06/22 03:48:13;;;;;;;13.07;4.40;;;15.10;99.90;;;;;;5081063;28;20394;-65
2021/06/22 03:50:40;;;;;;;12.30;4.25;;;15.10;99.90;;;;;;5069570;28;20396;-65
2021/06/22 03:53:07;;;;;;;13.80;4.53;;;15.10;99.90;;;;;;5086818;28;20412;-65
2021/06/22 03:55:33;;;;;;;14.93;4.43;;;15.10;99.90;;;;;;5083342;28;20860;-62
2021/06/22 03:58:00;;;;;;;14.43;4.80;;;15.20;99.90;;;;;;5070522;28;20394;-64
2021/06/22 04:00:27;;;;;;;11.77;4.18;;;15.30;99.90;;;;;;5082179;28;20372;-65
2021/06/22 04:02:54;;;;;;;14.27;4.32;;;15.40;99.90;;;;;;5079100;28;20386;-64
2021/06/22 04:05:21;;;;;;;15.52;4.63;;;15.40;99.90;;;;;;5079953;28;20392;-65
2021/06/22 04:07:47;;;;;;;12.20;4.20;;;15.40;99.90;;;;;;5083959;28;20911;-64
2021/06/22 04:10:13;;;;;;;12.98;4.10;;;15.40;99.90;;;;;;5080705;28;20381;-64
2021/06/22 04:12:39;;;;;;;12.68;4.53;;;15.40;99.90;;;;;;5088790;28;20400;-65
2021/06/22 04:15:06;;;;;;;16.30;4.15;;;15.50;99.90;;;;;;5087533;28;20372;-61
2021/06/22 04:17:32;;;;;;;16.17;4.70;;;15.50;99.90;;;;;;5079613;28;20394;-64
2021/06/22 04:19:58;;;;;;;13.40;4.40;;;15.50;99.90;;;;;;5081761;28;20390;-62
2021/06/22 04:22:24;;;;;;;14.60;4.38;;;15.50;99.90;;;;;;5083272;28;20380;-65
2021/06/22 04:24:50;;;;;;;13.75;4.43;;;15.50;99.90;;;;;;5082982;28;20735;-64
2021/06/22 04:27:16;;;;;;;17.17;4.70;;;15.60;99.90;;;;;;5077398;28;20394;-64
2021/06/22 04:29:42;;;;;;;12.40;4.18;;;15.70;99.90;;;;;;5078441;28;20739;-66
2021/06/22 04:32:08;;;;;;;13.70;4.57;;;15.80;99.90;;;;;;5081312;28;20402;-65
2021/06/22 04:34:34;;;;;;;15.75;4.15;;;15.80;99.90;;;;;;5086191;28;20406;-61
2021/06/22 04:37:00;;;;;;;14.40;4.43;;;15.90;99.90;;;;;;5074328;28;20405;-65
2021/06/22 04:39:26;;;;;;;9.80;4.07;;;16.00;99.90;;;;;;5082597;28;20884;-66
2021/06/22 04:41:52;;;;;;;14.88;4.10;;;16.00;99.90;;;;;;5082453;28;20373;-64
2021/06/22 04:44:19;;;;;;;14.73;4.20;;;16.10;99.90;;;;;;5076890;28;20920;-66
2021/06/22 04:46:45;;;;;;;13.45;3.67;;;16.10;99.90;;;;;;5078752;28;20381;-64
2021/06/22 04:49:11;;;;;;;17.10;4.40;;;16.10;99.90;;;;;;5071063;28;20402;-65
2021/06/22 04:51:37;;;;;;;13.15;4.03;;;16.20;99.90;;;;;;5086956;28;20375;-64
2021/06/22 04:54:03;;;;;;;12.70;4.35;;;16.20;99.90;;;;;;5077576;28;20407;-64
2021/06/22 04:56:29;;;;;;;18.30;4.50;;;16.20;99.90;;;;;;5071307;28;20889;-62
2021/06/22 04:58:56;;;;;;;16.43;4.47;;;16.20;99.90;;;;;;5086768;28;20386;-65
2021/06/22 05:01:25;;;;;;;15.00;4.47;;;16.30;99.90;;;;;;5089602;28;20395;-65
2021/06/22 05:03:51;;;;;;;14.60;4.30;;;16.30;99.90;;;;;;5085982;28;20387;-65
2021/06/22 05:06:17;;;;;;;15.00;4.40;;;16.30;99.90;;;;;;5076164;28;20697;-64
2021/06/22 05:08:43;;;;;;;12.52;4.63;;;16.40;99.90;;;;;;5085996;28;20383;-66
2021/06/22 05:11:10;;;;;;;13.98;4.60;;;16.30;99.90;;;;;;5069695;28;20385;-65
2021/06/22 05:13:36;;;;;;;13.65;4.50;;;16.30;99.90;;;;;;5075104;28;20518;-66
2021/06/22 05:16:03;;;;;;;19.38;4.90;;;16.30;99.90;;;;;;5077349;28;20375;-65
2021/06/22 05:18:29;;;;;;;15.88;4.35;;;16.30;99.90;;;;;;5075072;28;20381;-63
2021/06/22 05:20:55;;;;;;;12.25;3.92;;;16.30;99.90;;;;;;5076578;28;20738;-63
2021/06/22 05:23:21;;;;;;;12.90;4.43;;;16.40;99.90;;;;;;5076101;28;20389;-64
2021/06/22 05:25:47;;;;;;;10.52;3.72;;;16.40;99.90;;;;;;5070509;28;20389;-64
2021/06/22 05:28:13;;;;;;;17.07;4.30;;;16.40;99.90;;;;;;5076050;28;20386;-62
2021/06/22 05:30:39;;;;;;;28.98;4.68;;;16.40;99.90;;;;;;5074347;28;20419;-63
2021/06/22 05:33:06;;;;;;;15.98;4.00;;;16.30;99.90;;;;;;5080996;28;20401;-64
2021/06/22 05:35:32;;;;;;;21.30;7.40;;;16.30;99.90;;;;;;5086534;28;20380;-67
2021/06/22 05:37:58;;;;;;;14.13;5.40;;;16.20;99.90;;;;;;5088268;28;20399;-63
2021/06/22 05:40:25;;;;;;;13.65;4.05;;;16.20;99.90;;;;;;5085440;28;20382;-62
2021/06/22 05:42:51;;;;;;;15.73;4.22;;;16.20;99.90;;;;;;5078891;28;20394;-65
2021/06/22 05:45:17;;;;;;;17.70;4.05;;;16.10;99.90;;;;;;5070925;28;20698;-63
2021/06/22 05:47:43;;;;;;;17.45;4.03;;;16.20;99.90;;;;;;5076376;28;20890;-64
2021/06/22 05:50:10;;;;;;;17.48;4.00;;;16.30;99.90;;;;;;5079441;28;20745;-65
2021/06/22 05:52:36;;;;;;;12.73;3.88;;;16.30;99.90;;;;;;5081132;28;20410;-65
2021/06/22 05:55:03;;;;;;;43.47;6.03;;;16.40;99.90;;;;;;5084031;28;20383;-62
2021/06/22 05:57:29;;;;;;;13.48;3.95;;;16.50;99.90;;;;;;5087425;28;20749;-65
2021/06/22 05:59:55;;;;;;;14.93;3.90;;;16.60;99.90;;;;;;5087994;28;20380;-65
2021/06/22 06:02:21;;;;;;;10.85;3.50;;;16.60;99.90;;;;;;5085572;28;20865;-64
2021/06/22 06:04:47;;;;;;;13.75;4.07;;;16.60;99.90;;;;;;5084444;28;20405;-61
2021/06/22 06:07:13;;;;;;;13.45;4.32;;;16.70;99.90;;;;;;5084165;28;20892;-61
2021/06/22 06:09:39;;;;;;;18.23;4.25;;;16.60;99.90;;;;;;5083600;28;20393;-64
2021/06/22 06:12:06;;;;;;;14.33;4.50;;;16.60;99.90;;;;;;5083165;28;20395;-65
2021/06/22 06:14:32;;;;;;;24.02;5.28;;;16.50;99.90;;;;;;5077017;28;20406;-64
2021/06/22 06:16:58;;;;;;;13.97;4.70;;;16.50;99.90;;;;;;5084125;28;20889;-64
2021/06/22 06:19:24;;;;;;;14.40;4.85;;;16.50;99.90;;;;;;5074132;28;20378;-61
2021/06/22 06:21:51;;;;;;;15.52;4.97;;;16.50;99.90;;;;;;5083658;28;20393;-63
2021/06/22 06:24:17;;;;;;;21.65;5.63;;;16.50;99.90;;;;;;5073702;28;20398;-61
2021/06/22 06:31:56;;;;;;;17.67;4.50;;;16.60;99.90;;;;;;5085729;28;20386;-64
2021/06/22 06:34:23;;;;;;;19.58;5.70;;;16.60;99.90;;;;;;5079061;28;20425;-65
2021/06/22 06:36:49;;;;;;;17.50;5.15;;;16.60;99.90;;;;;;5079297;28;20396;-65
2021/06/22 06:39:15;;;;;;;120.90;14.63;;;16.70;99.90;;;;;;5075507;28;20397;-66
2021/06/22 06:41:41;;;;;;;18.77;5.57;;;16.70;99.90;;;;;;5086821;28;20384;-64
2021/06/22 06:44:07;;;;;;;27.50;6.68;;;16.80;99.90;;;;;;5087858;28;20399;-65
2021/06/22 06:46:33;;;;;;;26.88;5.60;;;16.80;99.90;;;;;;5078566;28;20389;-66
2021/06/22 06:48:59;;;;;;;47.65;7.68;;;17.00;99.90;;;;;;5089336;28;20855;-62
2021/06/22 06:51:25;;;;;;;17.88;4.72;;;17.10;99.90;;;;;;5081780;28;20389;-65
2021/06/22 06:53:51;;;;;;;18.45;4.32;;;17.20;99.90;;;;;;5087416;28;20419;-63
2021/06/22 06:56:17;;;;;;;13.73;4.50;;;17.10;99.90;;;;;;5089436;28;20749;-66
2021/06/22 06:58:43;;;;;;;27.33;5.80;;;17.10;99.90;;;;;;5082582;28;20401;-63
2021/06/22 07:01:09;;;;;;;12.93;4.50;;;17.20;99.90;;;;;;5083367;28;20390;-65
2021/06/22 07:03:37;;;;;;;17.60;5.22;;;17.20;99.90;;;;;;5087403;28;20752;-65
2021/06/22 07:06:03;;;;;;;14.05;4.35;;;17.30;99.90;;;;;;5081160;28;20394;-63
2021/06/22 07:08:29;;;;;;;12.73;4.00;;;17.40;99.90;;;;;;5083506;28;20864;-64
2021/06/22 07:10:55;;;;;;;13.77;4.10;;;17.40;99.90;;;;;;5086672;28;20397;-65
2021/06/22 07:13:22;;;;;;;17.33;4.05;;;17.50;99.90;;;;;;5089008;28;20827;-66
2021/06/22 07:15:49;;;;;;;13.30;4.20;;;17.60;99.90;;;;;;5091131;28;20380;-64
2021/06/22 07:18:15;;;;;;;16.90;4.05;;;17.70;99.90;;;;;;5079662;28;20392;-64
2021/06/22 07:20:41;;;;;;;13.98;3.90;;;17.70;99.90;;;;;;5085352;28;20382;-65
2021/06/22 07:23:07;;;;;;;20.13;4.40;;;17.80;99.90;;;;;;5078213;28;20386;-65
2021/06/22 07:25:33;;;;;;;17.73;4.05;;;17.80;99.90;;;;;;5084275;28;20419;-65
2021/06/22 07:27:59;;;;;;;13.35;3.90;;;18.00;99.90;;;;;;5090154;28;20394;-65
2021/06/22 07:30:26;;;;;;;11.32;3.92;;;17.90;99.90;;;;;;5082311;28;20902;-62
2021/06/22 07:32:53;;;;;;;11.53;3.63;;;18.10;99.90;;;;;;5090062;28;20404;-67
2021/06/22 07:35:19;;;;;;;11.80;3.60;;;18.20;99.90;;;;;;5083569;28;20404;-64
2021/06/22 07:37:46;;;;;;;14.38;3.78;;;18.30;99.90;;;;;;5085302;28;20393;-64
2021/06/22 07:40:13;;;;;;;16.00;3.78;;;18.40;99.90;;;;;;5080004;28;20380;-65
2021/06/22 07:42:39;;;;;;;16.17;4.13;;;18.50;99.90;;;;;;5080114;28;20389;-65
2021/06/22 07:45:06;;;;;;;11.43;3.30;;;18.70;99.90;;;;;;5082580;28;20405;-65
2021/06/22 07:47:32;;;;;;;13.77;4.00;;;18.80;99.90;;;;;;5084417;28;20890;-65
2021/06/22 07:49:58;;;;;;;11.52;3.35;;;19.10;99.90;;;;;;5076790;28;20479;-65
2021/06/22 07:52:24;;;;;;;11.88;3.58;;;19.10;99.90;;;;;;5069679;28;20891;-64
2021/06/22 07:54:50;;;;;;;12.07;3.20;;;19.10;99.90;;;;;;5081356;28;20437;-63
2021/06/22 07:57:16;;;;;;;10.70;3.30;;;19.10;99.90;;;;;;5077931;28;20885;-64
2021/06/22 07:59:43;;;;;;;15.10;3.50;;;19.20;99.90;;;;;;5080059;28;20858;-63
2021/06/22 08:02:09;;;;;;;13.98;3.60;;;19.40;99.90;;;;;;5078527;28;20377;-64
2021/06/22 08:04:35;;;;;;;14.75;3.83;;;19.30;99.90;;;;;;5079956;28;20404;-64
2021/06/22 08:07:01;;;;;;;14.17;4.17;;;19.10;99.90;;;;;;5083152;28;20401;-65
2021/06/22 08:09:27;;;;;;;11.88;3.60;;;18.80;99.90;;;;;;5080399;28;20412;-64
2021/06/22 08:11:53;;;;;;;10.38;3.33;;;18.70;99.90;;;;;;5081963;28;20395;-65
2021/06/22 08:14:19;;;;;;;12.93;3.60;;;18.50;99.90;;;;;;5086617;28;20408;-64
2021/06/22 08:16:45;;;;;;;14.27;3.53;;;18.60;99.90;;;;;;5078984;28;20718;-65
2021/06/22 08:19:11;;;;;;;10.48;3.50;;;18.80;99.90;;;;;;5078715;28;20395;-63
2021/06/22 08:21:38;;;;;;;15.95;3.88;;;18.90;99.90;;;;;;5080856;28;20877;-64
2021/06/22 08:24:05;;;;;;;12.85;3.50;;;19.10;99.90;;;;;;5086365;28;20388;-60
2021/06/22 08:26:31;;;;;;;18.60;3.63;;;19.20;99.90;;;;;;5079282;28;20761;-63
2021/06/22 08:28:57;;;;;;;15.30;3.92;;;19.40;99.90;;;;;;5076625;28;20899;-61
2021/06/22 08:31:23;;;;;;;13.90;3.83;;;19.40;99.90;;;;;;5088337;28;20392;-61
2021/06/22 08:33:49;;;;;;;13.30;3.70;;;19.40;99.90;;;;;;5084217;28;20888;-61
2021/06/22 08:36:15;;;;;;;12.55;3.75;;;19.40;99.90;;;;;;5077533;28;20398;-63
2021/06/22 08:38:42;;;;;;;16.17;3.67;;;19.60;99.90;;;;;;5066800;28;20410;-64
2021/06/22 08:41:08;;;;;;;17.00;4.00;;;19.70;99.90;;;;;;5082768;28;20924;-63
2021/06/22 08:43:35;;;;;;;12.20;3.42;;;19.60;99.90;;;;;;5082176;28;20407;-64
2021/06/22 08:46:05;;;;;;;13.57;3.80;;;19.50;99.90;;;;;;5077934;28;20904;-63
2021/06/22 08:48:31;;;;;;;13.77;3.92;;;19.50;99.90;;;;;;5081334;28;20753;-62
2021/06/22 08:50:57;;;;;;;14.60;3.72;;;19.30;99.90;;;;;;5079921;28;20378;-61
2021/06/22 08:53:23;;;;;;;12.50;3.73;;;19.20;99.90;;;;;;5088722;28;20400;-63
2021/06/22 08:55:49;;;;;;;18.15;3.75;;;18.90;99.90;;;;;;5079674;28;20382;-60
2021/06/22 08:58:17;;;;;;;17.85;3.92;;;18.70;99.90;;;;;;5083537;28;20896;-61
2021/06/22 09:00:50;;;;;;;11.95;3.50;;;18.50;99.90;;;;;;5079805;28;20392;-64
2021/06/22 09:03:24;;;;;;;17.40;4.20;;;18.50;99.90;;;;;;5083651;28;20406;-63
2021/06/22 09:05:55;;;;;;;13.10;3.60;;;18.50;99.90;;;;;;5084842;28;20401;-62
2021/06/22 09:08:22;;;;;;;10.90;3.20;;;18.70;99.90;;;;;;5084039;28;20395;-63
2021/06/22 09:10:50;;;;;;;32.70;7.78;;;18.90;99.90;;;;;;5085218;28;20392;-64
2021/06/22 09:13:18;;;;;;;11.70;3.90;;;19.00;99.90;;;;;;5070427;28;20406;-61
2021/06/22 09:15:45;;;;;;;13.57;3.60;;;19.00;99.90;;;;;;5084307;28;20884;-64
2021/06/22 09:18:31;;;;;;;17.60;5.78;;;19.10;99.90;;;;;;5081755;28;20388;-61
2021/06/22 09:20:58;;;;;;;13.63;4.00;;;19.20;99.90;;;;;;5080806;28;20718;-62
2021/06/22 09:23:29;;;;;;;13.98;3.60;;;19.20;99.90;;;;;;5083861;28;20733;-62
2021/06/22 09:25:56;;;;;;;13.55;3.67;;;19.30;99.90;;;;;;5086244;28;20407;-62
2021/06/22 09:28:29;;;;;;;10.15;3.30;;;19.30;99.90;;;;;;5084185;28;20736;-60
2021/06/22 09:31:03;;;;;;;14.43;3.63;;;19.20;99.90;;;;;;5080405;28;20413;-64
2021/06/22 09:33:34;;;;;;;11.82;3.65;;;19.10;99.90;;;;;;5085055;28;20396;-62
2021/06/22 09:36:31;;;;;;;13.93;3.60;;;19.10;99.90;;;;;;5081005;28;20412;-64
2021/06/22 09:38:59;;;;;;;14.20;3.60;;;19.20;99.90;;;;;;5080590;28;20734;-63
2021/06/22 09:41:29;;;;;;;15.73;4.03;;;19.20;99.90;;;;;;5086043;28;20406;-63
2021/06/22 09:44:02;;;;;;;12.27;3.70;;;19.20;99.90;;;;;;5074938;28;20382;-64
2021/06/22 09:46:44;;;;;;;9.90;3.20;;;19.20;99.90;;;;;;5077272;28;20396;-64
2021/06/22 09:49:21;;;;;;;12.60;3.70;;;19.40;99.90;;;;;;5080773;28;20393;-62
2021/06/22 09:51:55;;;;;;;11.73;3.78;;;19.50;99.90;;;;;;5078634;28;20739;-65
2021/06/22 09:54:25;;;;;;;13.60;3.83;;;19.50;99.90;;;;;;5075711;28;20409;-66
2021/06/22 09:57:04;;;;;;;15.88;3.97;;;19.60;99.90;;;;;;5079699;28;20381;-65
2021/06/22 10:00:08;;;;;;;12.45;3.70;;;19.90;99.90;;;;;;5084739;28;20400;-66
2021/06/22 10:02:49;;;;;;;12.82;3.70;;;20.80;99.90;;;;;;5080534;28;20404;-65
2021/06/22 10:05:16;;;;;;;11.88;3.58;;;21.30;99.90;;;;;;5081601;28;20884;-66
2021/06/22 10:07:42;;;;;;;14.50;3.63;;;21.50;99.90;;;;;;5086586;28;20855;-65
2021/06/22 10:10:09;;;;;;;24.83;4.35;;;21.30;99.00;;;;;;5082460;28;20396;-63
2021/06/22 10:12:38;;;;;;;14.77;3.97;;;20.90;99.90;;;;;;5081217;28;20394;-64
2021/06/22 10:15:05;;;;;;;14.02;4.18;;;20.70;99.90;;;;;;5079533;28;20434;-63
2021/06/22 10:17:32;;;;;;;16.20;3.72;;;20.10;99.90;;;;;;5088074;28;20395;-63
2021/06/22 10:19:59;;;;;;;13.82;4.15;;;19.80;99.90;;;;;;5086072;28;20380;-64
2021/06/22 10:22:27;;;;;;;14.35;4.00;;;19.60;99.90;;;;;;5082240;28;20393;-64
2021/06/22 10:24:56;;;;;;;13.10;4.07;;;19.50;99.90;;;;;;5083249;28;20400;-65
2021/06/22 10:27:22;;;;;;;15.95;4.00;;;19.50;99.90;;;;;;5082312;28;20392;-65
2021/06/22 10:29:50;;;;;;;12.43;4.67;;;19.60;99.90;;;;;;5084384;28;20388;-64
2021/06/22 10:32:17;;;;;;;16.57;4.50;;;19.70;99.90;;;;;;5079529;28;20398;-62
2021/06/22 10:35:07;;;;;;;14.95;4.38;;;19.40;99.90;;;;;;5083548;28;20420;-66
2021/06/22 10:37:39;;;;;;;35.58;4.63;;;19.30;99.90;;;;;;5080490;28;20752;-65
2021/06/22 10:40:23;;;;;;;17.02;4.03;;;19.50;99.90;;;;;;5082704;28;20801;-66
2021/06/22 10:42:51;;;;;;;14.57;4.05;;;19.90;99.90;;;;;;5077883;28;20484;-64
2021/06/22 10:45:17;;;;;;;15.50;3.83;;;20.10;99.90;;;;;;5082075;28;20386;-65
2021/06/22 10:47:44;;;;;;;11.80;3.90;;;20.20;99.90;;;;;;5077906;28;20399;-67
2021/06/22 10:50:22;;;;;;;13.07;4.43;;;20.20;99.90;;;;;;5081929;28;20725;-64
2021/06/22 10:53:16;;;;;;;12.15;3.70;;;19.70;99.90;;;;;;5085429;28;20390;-66
2021/06/22 10:55:55;;;;;;;16.75;4.43;;;19.70;99.90;;;;;;5072189;28;20398;-65
2021/06/22 10:58:21;;;;;;;14.43;4.03;;;19.50;99.90;;;;;;5080036;28;20404;-65
2021/06/22 11:00:50;;;;;;;12.15;4.05;;;19.50;99.90;;;;;;5083401;28;20388;-65
2021/06/22 11:03:32;;;;;;;13.85;4.10;;;19.40;99.90;;;;;;5087997;28;20701;-65
2021/06/22 11:06:14;;;;;;;14.13;3.88;;;19.40;99.90;;;;;;5074186;28;20429;-63
2021/06/22 11:08:41;;;;;;;13.52;3.85;;;19.80;99.90;;;;;;5089334;28;20384;-64
2021/06/22 11:11:07;;;;;;;15.83;4.27;;;19.80;99.90;;;;;;5080628;28;20392;-64
2021/06/22 11:13:52;;;;;;;12.73;3.85;;;19.80;99.90;;;;;;5079617;28;20698;-65
2021/06/22 11:16:18;;;;;;;14.43;4.03;;;19.50;99.90;;;;;;5079707;28;20378;-63
2021/06/22 11:21:32;;;;;;;13.40;4.00;;;19.50;99.90;;;;;;5093673;28;20392;-65
2021/06/22 11:24:05;;;;;;;14.63;4.22;;;19.50;99.90;;;;;;5093267;28;20369;-61
2021/06/22 11:26:54;;;;;;;25.63;4.85;;;19.30;99.90;;;;;;5090495;28;20388;-63
2021/06/22 11:29:25;;;;;;;14.75;3.65;;;19.40;99.90;;;;;;5059690;28;20419;-64
2021/06/22 11:31:51;;;;;;;12.82;3.88;;;19.50;99.90;;;;;;5073695;28;20386;-64
2021/06/22 11:34:22;;;;;;;12.95;4.18;;;19.60;99.90;;;;;;5086000;28;20408;-66
2021/06/22 11:36:55;;;;;;;10.88;3.72;;;19.80;99.90;;;;;;5073871;28;20747;-66
2021/06/22 11:39:30;;;;;;;16.05;4.28;;;20.00;99.90;;;;;;5072551;28;20378;-65
2021/06/22 11:42:12;;;;;;;14.38;3.95;;;20.40;99.90;;;;;;5073577;28;20389;-64
2021/06/22 11:44:41;;;;;;;13.15;3.78;;;20.60;99.90;;;;;;5092606;28;20892;-66
2021/06/22 11:47:26;;;;;;;11.13;3.53;;;20.90;99.90;;;;;;5092821;28;20388;-65
2021/06/22 11:49:58;;;;;;;10.82;3.45;;;21.40;99.40;;;;;;5091200;28;20392;-65
2021/06/22 11:52:44;;;;;;;11.95;3.75;;;21.20;99.50;;;;;;5092264;28;20388;-64
2021/06/22 11:55:14;;;;;;;11.45;3.70;;;20.90;98.60;;;;;;5086344;28;20400;-66
2021/06/22 11:57:48;;;;;;;12.20;3.75;;;21.30;99.00;;;;;;5092873;28;20381;-66
2021/06/22 12:00:16;;;;;;;12.52;3.88;;;21.80;98.40;;;;;;5091318;28;20873;-65
2021/06/22 12:02:57;;;;;;;13.27;3.90;;;22.40;98.10;;;;;;5092167;28;20393;-65
2021/06/22 12:05:25;;;;;;;23.77;4.10;;;22.20;97.00;;;;;;5085687;28;20403;-65
2021/06/22 12:07:53;;;;;;;11.65;3.70;;;22.00;97.30;;;;;;5074123;28;20895;-65
2021/06/22 12:10:20;;;;;;;13.27;3.38;;;21.90;96.50;;;;;;5092186;28;20381;-64
2021/06/22 12:12:47;;;;;;;14.03;4.00;;;21.50;96.70;;;;;;5091321;28;20395;-63
2021/06/22 12:15:14;;;;;;;13.18;3.58;;;21.50;96.50;;;;;;5088031;28;20423;-62
2021/06/22 12:17:48;;;;;;;10.48;3.42;;;21.40;95.70;;;;;;5091518;28;20468;-62
2021/06/22 12:20:21;;;;;;;12.10;3.78;;;21.40;97.50;;;;;;5091533;28;20397;-63
2021/06/22 12:23:04;;;;;;;11.97;3.70;;;21.30;97.90;;;;;;5091367;28;20393;-62
2021/06/22 12:25:33;;;;;;;10.90;3.60;;;21.50;98.70;;;;;;5091831;28;20388;-62
2021/06/22 12:27:59;;;;;;;12.75;3.92;;;21.60;97.70;;;;;;5091470;28;20380;-62
2021/06/22 12:30:33;;;;;;;12.52;3.75;;;21.70;97.30;;;;;;5091574;28;20400;-61
2021/06/22 12:33:10;;;;;;;10.65;3.47;;;21.70;97.50;;;;;;5086975;28;20408;-61
2021/06/22 12:35:36;;;;;;;12.20;3.65;;;21.70;97.20;;;;;;5089185;28;20888;-61
2021/06/22 12:38:11;;;;;;;13.18;3.38;;;21.70;97.90;;;;;;5088159;28;20384;-62
2021/06/22 12:40:41;;;;;;;14.43;3.70;;;21.50;96.90;;;;;;5089646;28;20384;-61
2021/06/22 12:43:07;;;;;;;24.88;3.97;;;21.40;97.10;;;;;;5072307;28;20426;-61
2021/06/22 12:45:33;;;;;;;13.10;3.70;;;21.30;97.80;;;;;;5077307;28;20393;-65
2021/06/22 12:47:59;;;;;;;15.30;4.07;;;21.00;97.80;;;;;;5088302;28;20718;-65